Amethyst — SYHQ — position and weather

sailwx.info

Track history (hours):
 
Tides and Currents Weather Stations Pressure Air Temp Water Temp Dewpoint Dewpoint Depression Visibility Wind Speed Wind Dir Waves Ship Positions

Amethyst

Last reported at 2017-Nov-19 18:39 UTC. Time now 2017-Nov-21 04:52 UTC.
Position N 38°18' E 024°32'.

Length 112 m; draft 4.9 m.

Type: Ship. MMSI: 240630000.

Date/timePositionNaut miles runAvg speedWind from/ knotsBaromVisibWave heightAir tempDewpointWater temp
2017-Nov-19 18:39N 38°18' E 024°32'  
2017-Nov-15 00:01N 37°45' E 024°17'1010.6
2017-Nov-14 23:05N 37°38' E 024°08'1110.2
2017-Nov-14 22:01N 37°38' E 023°54'110.3
2017-Nov-14 21:57N 37°38' E 023°53'4 9.9
2017-Nov-14 21:30N 37°39' E 023°48'5 9.2
2017-Nov-14 21:00N 37°41' E 023°42'5 9.9
2017-Nov-14 20:30N 37°45' E 023°39'510.1
2017-Nov-14 20:00N 37°50' E 023°37'510.2
2017-Nov-14 19:30N 37°55' E 023°36'2 4.0
2017-Nov-14 18:58N 37°57' E 023°37'0 0.0
2017-Nov-14 18:28N 37°57' E 023°37'0 0.0
2017-Nov-14 17:58N 37°57' E 023°37'0 0.0
2017-Nov-14 17:28N 37°57' E 023°37'0 0.0
2017-Nov-14 16:58N 37°57' E 023°37'0 0.0
2017-Nov-14 16:28N 37°57' E 023°37'0 0.0
2017-Nov-14 15:58N 37°57' E 023°37'0 0.0
2017-Nov-14 15:28N 37°57' E 023°37'0 0.0
2017-Nov-14 14:58N 37°57' E 023°37'0 0.0
2017-Nov-14 14:28N 37°57' E 023°37'0 0.0
2017-Nov-14 13:58N 37°57' E 023°37'0 0.0
2017-Nov-14 13:28N 37°57' E 023°37'0 0.0
2017-Nov-14 12:58N 37°57' E 023°37'0 0.0
2017-Nov-14 12:28N 37°57' E 023°37'0 0.3
2017-Nov-14 12:00N 37°57' E 023°37'2 3.7
2017-Nov-14 11:30N 37°55' E 023°37'611.5
2017-Nov-14 11:00N 37°50' E 023°40'611.7
2017-Nov-14 10:31N 37°44' E 023°43'611.8
2017-Nov-14 10:00N 37°39' E 023°46'611.7
2017-Nov-14 09:31N 37°34' E 023°49'57 1.1
2017-Nov-12 06:14N 38°18' E 024°33'36 0.9
2017-Nov-10 14:02N 37°44' E 024°17'1010.0
2017-Nov-10 13:01N 37°38' E 024°08'1210.2
2017-Nov-10 11:51N 37°38' E 023°53'410.6
2017-Nov-10 11:30N 37°39' E 023°48'510.0
2017-Nov-10 11:00N 37°40' E 023°42'510.5
2017-Nov-10 10:30N 37°45' E 023°40'510.6
2017-Nov-10 10:00N 37°50' E 023°37'510.4
2017-Nov-10 09:30N 37°55' E 023°37'2 3.1
2017-Nov-10 08:59N 37°57' E 023°37'0 0.0
2017-Nov-10 08:29N 37°57' E 023°37'0 0.0
2017-Nov-10 07:59N 37°57' E 023°37'0 0.0
2017-Nov-10 07:29N 37°57' E 023°37'0 0.0
2017-Nov-10 06:59N 37°57' E 023°37'0 0.0
2017-Nov-10 06:29N 37°57' E 023°37'0 0.0
2017-Nov-10 05:59N 37°57' E 023°37'0 0.0
2017-Nov-10 05:29N 37°57' E 023°37'0 0.0
2017-Nov-10 04:59N 37°57' E 023°37'0 0.0
2017-Nov-10 04:29N 37°57' E 023°37'0 0.0
2017-Nov-10 03:59N 37°57' E 023°37'0 0.0
2017-Nov-10 03:29N 37°57' E 023°37'0 0.0
2017-Nov-10 02:59N 37°57' E 023°37'0 0.0
2017-Nov-10 02:29N 37°57' E 023°37'0 0.0
2017-Nov-10 01:59N 37°57' E 023°37'0 0.0
2017-Nov-10 01:29N 37°57' E 023°37'0 0.0
2017-Nov-10 00:59N 37°57' E 023°37'0 0.0
2017-Nov-10 00:29N 37°57' E 023°37'0 0.0
2017-Nov-09 23:59N 37°57' E 023°37'0 0.0
2017-Nov-09 23:29N 37°57' E 023°37'0 0.0
2017-Nov-09 22:59N 37°57' E 023°37'0 0.0
2017-Nov-09 22:29N 37°57' E 023°37'0 0.0
2017-Nov-09 21:59N 37°57' E 023°37'0 0.0
2017-Nov-09 21:29N 37°57' E 023°37'0 0.0
2017-Nov-09 20:59N 37°57' E 023°37'0 0.0
2017-Nov-09 20:29N 37°57' E 023°37'0 0.0
2017-Nov-09 19:59N 37°57' E 023°37'0 0.0
2017-Nov-09 19:29N 37°57' E 023°37'0 0.0
2017-Nov-09 18:59N 37°57' E 023°37'  
Track history (hours):
 
Tides and Currents Weather Stations Pressure Air Temp Water Temp Dewpoint Dewpoint Depression Visibility Wind Speed Wind Dir Waves Ship Positions

Amethyst

Last reported at 2017-Nov-19 18:39 UTC. Time now 2017-Nov-21 04:52 UTC.
Position N 38°18' E 024°32'.

Length 112 m; draft 4.9 m.

Type: Ship. MMSI: 240630000.

Date/timePositionNaut miles runAvg speedWind from/ knotsBaromVisibWave heightAir tempDewpointWater temp
2017-Nov-19 18:39N 38°18' E 024°32'  
2017-Nov-15 00:01N 37°45' E 024°17'1010.6
2017-Nov-14 23:05N 37°38' E 024°08'1110.2
2017-Nov-14 22:01N 37°38' E 023°54'110.3
2017-Nov-14 21:57N 37°38' E 023°53'4 9.9
2017-Nov-14 21:30N 37°39' E 023°48'5 9.2
2017-Nov-14 21:00N 37°41' E 023°42'5 9.9
2017-Nov-14 20:30N 37°45' E 023°39'510.1
2017-Nov-14 20:00N 37°50' E 023°37'510.2
2017-Nov-14 19:30N 37°55' E 023°36'2 4.0
2017-Nov-14 18:58N 37°57' E 023°37'0 0.0
2017-Nov-14 18:28N 37°57' E 023°37'0 0.0
2017-Nov-14 17:58N 37°57' E 023°37'0 0.0
2017-Nov-14 17:28N 37°57' E 023°37'0 0.0
2017-Nov-14 16:58N 37°57' E 023°37'0 0.0
2017-Nov-14 16:28N 37°57' E 023°37'0 0.0
2017-Nov-14 15:58N 37°57' E 023°37'0 0.0
2017-Nov-14 15:28N 37°57' E 023°37'0 0.0
2017-Nov-14 14:58N 37°57' E 023°37'0 0.0
2017-Nov-14 14:28N 37°57' E 023°37'0 0.0
2017-Nov-14 13:58N 37°57' E 023°37'0 0.0
2017-Nov-14 13:28N 37°57' E 023°37'0 0.0
2017-Nov-14 12:58N 37°57' E 023°37'0 0.0
2017-Nov-14 12:28N 37°57' E 023°37'0 0.3
2017-Nov-14 12:00N 37°57' E 023°37'2 3.7
2017-Nov-14 11:30N 37°55' E 023°37'611.5
2017-Nov-14 11:00N 37°50' E 023°40'611.7
2017-Nov-14 10:31N 37°44' E 023°43'611.8
2017-Nov-14 10:00N 37°39' E 023°46'611.7
2017-Nov-14 09:31N 37°34' E 023°49'57 1.1
2017-Nov-12 06:14N 38°18' E 024°33'36 0.9
2017-Nov-10 14:02N 37°44' E 024°17'1010.0
2017-Nov-10 13:01N 37°38' E 024°08'1210.2
2017-Nov-10 11:51N 37°38' E 023°53'410.6
2017-Nov-10 11:30N 37°39' E 023°48'510.0
2017-Nov-10 11:00N 37°40' E 023°42'510.5
2017-Nov-10 10:30N 37°45' E 023°40'510.6
2017-Nov-10 10:00N 37°50' E 023°37'510.4
2017-Nov-10 09:30N 37°55' E 023°37'2 3.1
2017-Nov-10 08:59N 37°57' E 023°37'0 0.0
2017-Nov-10 08:29N 37°57' E 023°37'0 0.0
2017-Nov-10 07:59N 37°57' E 023°37'0 0.0
2017-Nov-10 07:29N 37°57' E 023°37'0 0.0
2017-Nov-10 06:59N 37°57' E 023°37'0 0.0
2017-Nov-10 06:29N 37°57' E 023°37'0 0.0
2017-Nov-10 05:59N 37°57' E 023°37'0 0.0
2017-Nov-10 05:29N 37°57' E 023°37'0 0.0
2017-Nov-10 04:59N 37°57' E 023°37'0 0.0
2017-Nov-10 04:29N 37°57' E 023°37'0 0.0
2017-Nov-10 03:59N 37°57' E 023°37'0 0.0
2017-Nov-10 03:29N 37°57' E 023°37'0 0.0
2017-Nov-10 02:59N 37°57' E 023°37'0 0.0
2017-Nov-10 02:29N 37°57' E 023°37'0 0.0
2017-Nov-10 01:59N 37°57' E 023°37'0 0.0
2017-Nov-10 01:29N 37°57' E 023°37'0 0.0
2017-Nov-10 00:59N 37°57' E 023°37'0 0.0
2017-Nov-10 00:29N 37°57' E 023°37'0 0.0
2017-Nov-09 23:59N 37°57' E 023°37'0 0.0
2017-Nov-09 23:29N 37°57' E 023°37'0 0.0
2017-Nov-09 22:59N 37°57' E 023°37'0 0.0
2017-Nov-09 22:29N 37°57' E 023°37'0 0.0
2017-Nov-09 21:59N 37°57' E 023°37'0 0.0
2017-Nov-09 21:29N 37°57' E 023°37'0 0.0
2017-Nov-09 20:59N 37°57' E 023°37'0 0.0
2017-Nov-09 20:29N 37°57' E 023°37'0 0.0
2017-Nov-09 19:59N 37°57' E 023°37'0 0.0
2017-Nov-09 19:29N 37°57' E 023°37'0 0.0
2017-Nov-09 18:59N 37°57' E 023°37'  

Dump ship's entire track history